Time;durP1;ratioP1;P1;durP2;ratioP2;P2;SDS_P1;SDS_P2;PMS_P1;PMS_P2;Temp;Humidity;BMP_temperature;BMP_pressure;BME280_temperature;BME280_humidity;BME280_pressure;Samples;Min_cycle;Max_cycle;Signal;HPM_P1;HPM_P2
2023/05/31 00:01:50;;;;;;;10.13;7.10;;;16.00;99.90;;;16.31;75.25;102557.88;5083236;28;20041;-67
2023/05/31 00:04:19;;;;;;;7.70;6.88;;;15.90;99.90;;;16.24;75.81;102551.63;5079879;28;20064;-67
2023/05/31 00:06:47;;;;;;;8.02;6.78;;;15.90;99.90;;;16.30;75.69;102564.13;5084557;28;20036;-67
2023/05/31 00:09:16;;;;;;;8.55;6.95;;;15.90;99.90;;;16.26;75.61;102560.53;5080639;28;20044;-67
2023/05/31 00:11:44;;;;;;;12.00;7.35;;;15.90;99.90;;;16.28;75.64;102556.97;5077130;28;20055;-67
2023/05/31 00:14:13;;;;;;;8.45;7.32;;;15.90;99.90;;;16.22;75.71;102564.09;5083828;28;20089;-67
2023/05/31 00:16:41;;;;;;;8.05;7.13;;;15.80;99.90;;;16.12;76.04;102559.66;5081512;28;20063;-67
2023/05/31 00:19:31;;;;;;;8.80;7.28;;;15.70;99.90;;;16.17;76.14;102557.88;5076790;28;20486;-67
2023/05/31 00:21:59;;;;;;;9.50;7.10;;;15.80;99.90;;;16.17;76.45;102557.88;5084037;28;20048;-67
2023/05/31 00:24:27;;;;;;;7.82;6.97;;;15.80;99.90;;;16.15;76.50;102555.22;5081403;28;20041;-67
2023/05/31 00:26:56;;;;;;;9.30;7.22;;;15.80;99.90;;;16.18;76.39;102559.69;5081635;28;20055;-67
2023/05/31 00:29:25;;;;;;;10.35;7.50;;;15.80;99.90;;;16.20;76.42;102557.91;5080826;28;20086;-67
2023/05/31 00:31:54;;;;;;;10.02;7.10;;;15.80;99.90;;;16.13;76.86;102562.34;5080647;28;20081;-67
2023/05/31 00:34:22;;;;;;;9.35;7.18;;;15.80;99.90;;;16.03;77.15;102548.97;5098844;28;20049;-67
2023/05/31 00:36:52;;;;;;;9.05;7.28;;;15.70;99.90;;;16.09;77.17;102555.22;5081120;28;20371;-67
2023/05/31 00:39:20;;;;;;;7.50;6.77;;;15.70;99.90;;;16.10;77.25;102556.13;5099700;28;20044;-67
2023/05/31 00:41:49;;;;;;;9.75;7.40;;;15.70;99.90;;;16.15;77.26;102557.00;5075028;28;20302;-67
2023/05/31 00:44:17;;;;;;;11.73;7.57;;;15.70;99.90;;;16.12;77.36;102555.19;5083785;28;20075;-67
2023/05/31 00:46:46;;;;;;;7.82;7.03;;;15.70;99.90;;;16.07;77.38;102550.75;5080992;28;20440;-67
2023/05/31 00:49:14;;;;;;;8.93;7.43;;;15.70;99.90;;;16.00;77.70;102543.66;5086781;28;20486;-68
2023/05/31 00:51:43;;;;;;;11.65;7.75;;;15.60;99.90;;;15.90;77.85;102526.75;5101511;28;20048;-68
2023/05/31 00:54:13;;;;;;;9.45;7.00;;;15.70;99.90;;;16.00;77.87;102546.31;5084886;28;20052;-67
2023/05/31 00:56:41;;;;;;;10.40;7.53;;;15.60;99.90;;;16.00;78.06;102543.66;5069144;28;20113;-68
2023/05/31 00:59:10;;;;;;;9.27;7.40;;;15.60;99.90;;;16.02;78.29;102552.53;5083893;28;20045;-68
2023/05/31 01:01:40;;;;;;;9.00;7.45;;;15.60;99.90;;;16.01;78.24;102556.09;5087561;28;20051;-67
2023/05/31 01:04:10;;;;;;;8.70;7.82;;;15.60;99.90;;;15.94;78.30;102554.31;5079903;28;20052;-67
2023/05/31 01:06:39;;;;;;;8.93;7.50;;;15.60;99.90;;;15.89;78.06;102548.09;5103080;28;20051;-68
2023/05/31 01:09:08;;;;;;;11.60;7.13;;;15.60;99.90;;;15.82;78.31;102552.53;5084612;28;20098;-67
2023/05/31 01:11:54;;;;;;;9.13;7.25;;;15.50;99.90;;;15.56;78.63;102508.94;5086182;28;20040;-67
2023/05/31 01:14:35;;;;;;;10.73;8.10;;;15.50;99.90;;;15.88;78.38;102554.31;5096094;28;20505;-68
2023/05/31 01:17:22;;;;;;;10.77;8.10;;;15.50;99.90;;;15.88;78.40;102543.63;5085440;28;20048;-67
2023/05/31 01:19:55;;;;;;;8.25;7.22;;;15.50;99.90;;;15.86;78.28;102548.06;5082546;28;20060;-67
2023/05/31 01:22:42;;;;;;;10.00;8.25;;;15.50;99.90;;;15.83;78.36;102548.94;5085312;28;20400;-68
2023/05/31 01:25:36;;;;;;;9.32;8.27;;;15.50;99.90;;;15.79;78.31;102544.53;5064503;28;20098;-68
2023/05/31 01:28:08;;;;;;;9.18;7.68;;;15.50;99.90;;;15.80;78.26;102546.28;5081518;28;20036;-68
2023/05/31 01:30:38;;;;;;;8.05;7.25;;;15.50;99.90;;;15.58;78.22;102543.59;5084370;28;20155;-67
2023/05/31 01:33:11;;;;;;;11.68;8.27;;;15.50;99.90;;;15.69;78.63;102544.50;5068653;28;20050;-67
2023/05/31 01:35:39;;;;;;;10.07;7.70;;;15.40;99.90;;;15.70;78.58;102539.16;5083994;28;20378;-67
2023/05/31 01:38:08;;;;;;;9.82;7.80;;;15.40;99.90;;;15.69;78.44;102544.50;5087234;28;20087;-67
2023/05/31 01:40:36;;;;;;;11.20;8.10;;;15.40;99.90;;;15.60;78.75;102539.16;5054487;28;20114;-67
2023/05/31 01:43:09;;;;;;;12.95;8.25;;;15.30;99.90;;;15.59;79.00;102548.94;5102188;28;20051;-68
2023/05/31 01:45:39;;;;;;;13.13;8.10;;;15.30;99.90;;;15.63;79.01;102547.16;5085441;28;20371;-67
2023/05/31 01:48:11;;;;;;;10.88;7.88;;;15.30;99.90;;;15.64;78.74;102546.28;5100337;28;20120;-67
2023/05/31 01:50:41;;;;;;;10.63;8.43;;;15.30;99.90;;;15.58;79.05;102543.59;5101939;28;20083;-67
2023/05/31 01:53:10;;;;;;;9.57;8.10;;;15.30;99.90;;;15.60;78.84;102558.72;5083256;28;20048;-67
2023/05/31 01:55:39;;;;;;;11.38;8.00;;;15.30;99.90;;;15.54;79.17;102555.16;5061798;28;20057;-68
2023/05/31 01:58:10;;;;;;;13.57;8.40;;;15.30;99.90;;;15.49;79.25;102548.91;5086292;28;20067;-67
2023/05/31 02:00:41;;;;;;;11.85;8.57;;;15.20;99.90;;;15.49;79.22;102544.47;5099030;28;20056;-68
2023/05/31 02:03:10;;;;;;;;;;;15.20;99.90;;;15.53;79.10;102543.59;5100841;28;20084;-67
2023/05/31 02:05:56;;;;;;;9.82;8.13;;;15.20;99.90;;;15.56;78.93;102546.28;5084754;28;20018;-68
2023/05/31 02:08:25;;;;;;;13.75;8.75;;;15.30;99.90;;;15.56;78.98;102545.38;5097068;28;20057;-68
2023/05/31 02:10:54;;;;;;;10.98;8.32;;;15.30;99.90;;;15.56;78.99;102545.38;5083739;28;20067;-68
2023/05/31 02:13:27;;;;;;;10.32;8.35;;;15.20;99.90;;;15.54;78.90;102549.81;5085045;28;20060;-68
2023/05/31 02:15:55;;;;;;;13.82;7.95;;;15.20;99.90;;;15.50;78.83;102545.38;5099260;28;20067;-67
2023/05/31 02:18:26;;;;;;;9.05;8.02;;;15.20;99.90;;;15.38;79.25;102546.19;5101934;28;20039;-67
2023/05/31 02:20:55;;;;;;;12.73;8.50;;;15.10;99.90;;;15.42;79.34;102541.78;5077885;28;20055;-68
2023/05/31 02:23:24;;;;;;;10.35;7.90;;;15.10;99.90;;;15.35;79.33;102541.72;5085649;28;20040;-68
2023/05/31 02:25:52;;;;;;;9.60;7.95;;;15.10;99.90;;;15.40;79.40;102539.09;5083506;28;20052;-68
2023/05/31 02:28:21;;;;;;;12.52;8.38;;;15.10;99.90;;;15.39;79.18;102543.53;5084870;28;20069;-68
2023/05/31 02:30:57;;;;;;;12.15;8.48;;;15.00;99.90;;;15.17;79.50;102530.13;5084711;28;20082;-67
2023/05/31 02:33:26;;;;;;;11.00;8.20;;;15.00;99.90;;;15.34;79.70;102549.72;5082993;28;20044;-68
2023/05/31 02:35:56;;;;;;;11.48;8.63;;;15.00;99.90;;;15.37;79.84;102552.41;5086112;28;20052;-68
2023/05/31 02:38:25;;;;;;;;;;;15.00;99.90;;;15.37;79.46;102550.63;5079639;28;20086;-68
2023/05/31 02:40:54;;;;;;;10.20;8.77;;;15.10;99.90;;;15.33;79.50;102547.94;5085086;28;20324;-67
2023/05/31 02:43:22;;;;;;;11.02;8.13;;;15.10;99.90;;;15.39;79.39;102539.94;5083258;28;20401;-68
2023/05/31 02:45:51;;;;;;;10.52;8.15;;;15.10;99.90;;;15.33;79.38;102535.50;5083142;28;20044;-68
2023/05/31 02:48:22;;;;;;;11.43;8.52;;;15.10;99.90;;;15.37;79.21;102536.38;5084188;28;20440;-68
2023/05/31 02:50:50;;;;;;;14.73;8.35;;;15.00;99.90;;;15.42;78.88;102536.44;5081954;28;20056;-68
2023/05/31 02:53:39;;;;;;;10.70;8.40;;;15.10;99.90;;;15.24;79.11;102532.81;5082612;28;20486;-68
2023/05/31 02:56:12;;;;;;;12.65;8.63;;;15.00;99.90;;;15.23;79.27;102536.34;5081875;28;20139;-68
2023/05/31 02:59:03;;;;;;;10.07;8.07;;;14.90;99.90;;;15.24;79.58;102531.91;5098147;28;20456;-67
2023/05/31 03:01:50;;;;;;;10.68;8.43;;;14.90;99.90;;;15.23;79.51;102530.16;5080939;28;20511;-68
2023/05/31 03:04:41;;;;;;;12.38;8.18;;;14.90;99.90;;;15.27;79.45;102527.47;5093865;28;20056;-67
2023/05/31 03:07:10;;;;;;;11.48;8.52;;;14.90;99.90;;;15.27;79.24;102524.81;5100089;28;20048;-67
2023/05/31 03:09:38;;;;;;;11.13;8.60;;;15.00;99.90;;;15.28;79.05;102525.72;5081853;28;20041;-68
2023/05/31 03:12:08;;;;;;;11.77;8.43;;;15.00;99.90;;;15.30;79.50;102531.94;5098733;28;20052;-67
2023/05/31 03:14:37;;;;;;;11.88;8.65;;;15.00;99.90;;;15.24;79.06;102531.91;5099977;28;20068;-67
2023/05/31 03:17:07;;;;;;;11.10;8.73;;;15.00;99.90;;;15.28;79.32;102531.94;5097921;28;20098;-68
2023/05/31 03:19:39;;;;;;;12.82;8.85;;;14.90;99.90;;;15.27;79.48;102535.47;5101073;28;20298;-67
2023/05/31 03:22:08;;;;;;;10.00;8.75;;;14.90;99.90;;;15.29;79.16;102520.38;5053013;28;20079;-68
2023/05/31 03:24:36;;;;;;;10.13;8.23;;;15.00;99.90;;;14.57;79.25;102397.59;5084089;28;20519;-68
2023/05/31 03:27:06;;;;;;;9.60;7.90;;;14.90;99.90;;;15.23;79.40;102520.34;5081810;28;20064;-68
2023/05/31 03:29:42;;;;;;;15.15;8.18;;;14.90;99.90;;;15.24;79.25;102518.59;5082086;28;20098;-68
2023/05/31 03:32:10;;;;;;;11.88;9.00;;;14.90;99.90;;;15.19;79.38;102518.56;5100243;28;20134;-68
2023/05/31 03:34:40;;;;;;;12.43;8.68;;;14.90;99.90;;;15.26;79.27;102514.16;5081349;28;20051;-67
2023/05/31 03:37:09;;;;;;;13.77;9.23;;;14.90;99.90;;;15.20;79.39;102515.03;5093106;28;20056;-68
2023/05/31 03:40:00;;;;;;;11.70;8.55;;;14.90;99.90;;;15.22;79.65;102515.94;5080879;28;20334;-67
2023/05/31 03:42:32;;;;;;;12.30;8.55;;;14.90;99.90;;;15.13;79.63;102501.69;5060777;28;20073;-67
2023/05/31 03:45:00;;;;;;;9.85;7.55;;;14.90;99.90;;;15.17;79.74;102508.81;5082693;28;20051;-68
2023/05/31 03:47:29;;;;;;;11.40;8.77;;;14.90;99.90;;;15.21;79.72;102505.25;5097758;28;20139;-67
2023/05/31 03:49:59;;;;;;;10.63;8.85;;;14.90;99.90;;;15.17;79.76;102508.81;5098569;28;20040;-68
2023/05/31 03:52:28;;;;;;;12.60;8.80;;;14.90;99.90;;;15.20;79.96;102506.13;5082098;28;20413;-68
2023/05/31 03:54:57;;;;;;;12.15;8.32;;;14.80;99.90;;;15.19;79.73;102513.22;5082018;28;20135;-67
2023/05/31 03:57:25;;;;;;;12.63;9.27;;;14.90;99.90;;;15.15;79.92;102522.13;5082721;28;20043;-67
2023/05/31 03:59:54;;;;;;;12.45;8.75;;;14.80;99.90;;;15.06;80.18;102518.56;5081173;28;20072;-67
2023/05/31 04:02:22;;;;;;;13.35;9.15;;;14.80;99.90;;;15.15;80.13;102523.91;5076625;28;20390;-67
2023/05/31 04:04:51;;;;;;;9.73;8.23;;;14.80;99.90;;;15.16;80.25;102526.56;5077432;28;20119;-67
2023/05/31 04:07:21;;;;;;;11.95;9.13;;;14.80;99.90;;;15.20;80.17;102531.03;5099533;28;20055;-67
2023/05/31 04:09:50;;;;;;;10.77;9.07;;;14.80;99.90;;;15.21;79.82;102531.91;5081248;28;20049;-67
2023/05/31 04:12:19;;;;;;;12.27;9.15;;;14.90;99.90;;;15.23;79.83;102530.16;5098383;28;20040;-67
2023/05/31 04:14:47;;;;;;;10.98;8.60;;;14.90;99.90;;;15.09;79.91;102532.78;5081422;28;20102;-67
2023/05/31 04:17:16;;;;;;;10.35;8.70;;;14.80;99.90;;;15.13;80.02;102539.00;5080619;28;20051;-67
2023/05/31 04:19:45;;;;;;;12.20;9.38;;;14.70;99.90;;;15.08;80.13;102532.75;5099342;28;20138;-67
2023/05/31 04:22:14;;;;;;;11.50;8.70;;;14.70;99.90;;;14.93;80.33;102528.25;5095861;28;20080;-67
2023/05/31 04:24:45;;;;;;;12.40;9.05;;;14.70;99.90;;;14.98;80.73;102525.63;5075172;28;20132;-67
2023/05/31 04:27:19;;;;;;;14.85;9.55;;;14.70;99.90;;;14.95;80.71;102528.25;5079017;28;20442;-67
2023/05/31 04:29:51;;;;;;;14.20;9.73;;;14.60;99.90;;;14.94;81.03;102527.34;5081191;28;20059;-67
2023/05/31 04:32:21;;;;;;;11.05;9.15;;;14.70;99.90;;;14.91;81.52;102538.00;5083236;28;20060;-67
2023/05/31 04:34:57;;;;;;;12.52;9.73;;;14.60;99.90;;;14.93;81.59;102538.91;5096553;28;20053;-67
2023/05/31 04:37:29;;;;;;;14.85;10.13;;;14.60;99.90;;;14.96;81.80;102541.56;5061080;28;20510;-68
2023/05/31 04:40:02;;;;;;;13.10;10.07;;;14.60;99.90;;;14.86;81.67;102518.47;5081185;28;20076;-67
2023/05/31 04:42:31;;;;;;;14.93;9.50;;;14.70;99.90;;;14.99;82.13;102546.94;5115584;27;20056;-67
2023/05/31 04:45:01;;;;;;;11.98;9.45;;;14.70;99.90;;;15.05;82.15;102535.41;5079671;28;20515;-67
2023/05/31 04:47:34;;;;;;;15.93;10.43;;;14.70;99.90;;;14.97;82.04;102519.38;5092338;28;20045;-67
2023/05/31 04:50:03;;;;;;;12.93;10.20;;;14.80;99.90;;;15.17;82.07;102544.34;5082256;28;20047;-67
2023/05/31 04:52:32;;;;;;;13.73;10.35;;;14.80;99.90;;;15.21;82.25;102535.44;5080176;28;20048;-68
2023/05/31 04:55:02;;;;;;;13.55;10.63;;;14.90;99.90;;;15.10;82.28;102533.63;5081442;28;20497;-67
2023/05/31 04:57:30;;;;;;;13.00;10.00;;;14.80;99.90;;;15.20;82.38;102541.69;5098037;28;20052;-67
2023/05/31 05:00:00;;;;;;;15.63;10.20;;;14.80;99.90;;;15.26;82.42;102524.81;5080135;28;20102;-67
2023/05/31 05:02:29;;;;;;;13.63;10.90;;;15.00;99.90;;;15.36;82.24;102524.84;5090761;28;20040;-67
2023/05/31 05:04:58;;;;;;;15.50;10.23;;;15.00;99.90;;;15.40;82.38;102533.75;5078791;28;20098;-68
2023/05/31 05:07:26;;;;;;;15.10;10.80;;;15.10;99.90;;;15.48;82.19;102536.47;5058864;28;20049;-67
2023/05/31 05:09:55;;;;;;;20.23;10.70;;;15.10;99.90;;;15.44;82.31;102519.56;5059414;28;20047;-67
2023/05/31 05:12:25;;;;;;;15.63;10.88;;;15.20;99.90;;;15.51;82.07;102536.47;5098885;28;20448;-67
2023/05/31 05:14:53;;;;;;;14.32;10.63;;;15.20;99.90;;;15.54;82.18;102537.38;5114021;28;20563;-67
2023/05/31 05:17:22;;;;;;;15.95;10.40;;;15.20;99.90;;;15.58;82.17;102539.13;5080717;28;20048;-68
2023/05/31 05:19:50;;;;;;;15.05;10.90;;;15.20;99.90;;;15.64;82.03;102533.81;5082225;28;20040;-67
2023/05/31 05:22:20;;;;;;;14.00;11.50;;;15.30;99.90;;;15.67;82.15;102535.59;5080147;28;20071;-67
2023/05/31 05:24:48;;;;;;;13.95;11.35;;;15.30;99.90;;;15.68;82.36;102540.06;5081622;28;20067;-67
2023/05/31 05:27:17;;;;;;;17.60;11.52;;;15.40;99.90;;;15.72;82.50;102542.72;5079082;28;20048;-67
2023/05/31 05:29:48;;;;;;;13.77;11.18;;;15.40;99.90;;;15.86;82.22;102550.75;5058879;28;20065;-67
2023/05/31 05:32:17;;;;;;;14.45;11.18;;;15.50;99.90;;;15.91;82.34;102565.88;5059722;28;20056;-68
2023/05/31 05:34:46;;;;;;;18.20;11.10;;;15.60;99.90;;;16.00;81.98;102543.66;5084327;28;20048;-67
2023/05/31 05:37:15;;;;;;;15.13;11.85;;;15.70;99.90;;;15.96;82.00;102545.44;5084877;28;20485;-68
2023/05/31 05:39:43;;;;;;;20.45;12.43;;;15.70;99.90;;;16.09;82.16;102554.31;5085487;28;20047;-68
2023/05/31 05:42:12;;;;;;;20.67;11.98;;;15.70;99.90;;;16.18;82.08;102547.19;5085346;28;20049;-68
2023/05/31 05:44:41;;;;;;;16.92;11.85;;;15.80;99.90;;;16.21;81.70;102543.63;5084614;28;20138;-68
2023/05/31 05:47:11;;;;;;;18.33;11.40;;;15.90;99.90;;;16.34;81.85;102552.53;5085023;28;20078;-68
2023/05/31 05:49:39;;;;;;;16.15;11.45;;;16.00;99.90;;;16.33;81.37;102535.63;5082039;28;20052;-68
2023/05/31 05:52:08;;;;;;;20.48;12.05;;;16.10;99.90;;;16.39;81.48;102554.31;5079631;28;20036;-68
2023/05/31 05:54:37;;;;;;;16.63;11.20;;;16.10;99.90;;;16.52;81.39;102552.53;5086648;28;20039;-68
2023/05/31 05:57:08;;;;;;;18.45;12.20;;;16.10;99.90;;;16.59;80.88;102557.00;5082763;28;20049;-68
2023/05/31 05:59:41;;;;;;;18.65;11.80;;;16.20;99.90;;;16.72;80.35;102548.03;5083724;28;20048;-67
2023/05/31 06:02:20;;;;;;;14.45;11.15;;;16.40;99.90;;;16.75;80.31;102543.56;5086800;28;20296;-68
2023/05/31 06:04:51;;;;;;;18.40;12.60;;;16.40;99.90;;;16.88;80.20;102544.41;5095720;28;20056;-68
2023/05/31 06:07:21;;;;;;;18.65;12.45;;;16.60;99.90;;;17.01;79.96;102552.38;5101184;28;20048;-68
2023/05/31 06:09:52;;;;;;;15.98;12.05;;;16.70;99.90;;;17.07;79.46;102549.69;5100320;28;20048;-68
2023/05/31 06:12:21;;;;;;;17.67;12.43;;;16.80;99.90;;;17.17;78.82;102547.00;5082797;28;20048;-68
2023/05/31 06:14:50;;;;;;;16.77;12.00;;;16.80;99.90;;;17.30;78.91;102552.28;5101461;28;20156;-68
2023/05/31 06:17:21;;;;;;;15.93;12.40;;;17.00;99.90;;;17.44;78.35;102557.56;5082955;28;20048;-68
2023/05/31 06:19:50;;;;;;;18.55;11.85;;;17.10;99.90;;;17.46;77.69;102561.97;5077791;28;20293;-68
2023/05/31 06:22:19;;;;;;;18.70;13.43;;;17.10;99.90;;;17.63;77.07;102557.47;5118682;27;20519;-68
2023/05/31 06:24:47;;;;;;;16.65;12.88;;;17.30;99.90;;;17.68;76.91;102563.66;5066153;28;20037;-68
2023/05/31 06:27:15;;;;;;;16.33;12.60;;;17.40;99.90;;;17.78;76.75;102559.13;5084893;28;20500;-67
2023/05/31 06:29:46;;;;;;;18.67;13.05;;;17.50;99.90;;;17.87;76.68;102553.72;5099973;28;20128;-67
2023/05/31 06:32:22;;;;;;;18.75;13.10;;;17.60;99.90;;;17.98;76.22;102579.50;5081611;28;20052;-67
2023/05/31 06:34:52;;;;;;;17.48;13.00;;;17.70;99.90;;;18.06;75.84;102563.38;5111186;27;20045;-67
2023/05/31 06:37:21;;;;;;;17.10;13.27;;;17.70;99.90;;;18.17;75.40;102565.97;5077858;28;20086;-67
2023/05/31 06:39:50;;;;;;;19.33;13.48;;;17.90;99.90;;;18.24;74.78;102565.00;5084012;28;20048;-67
2023/05/31 06:42:21;;;;;;;16.45;12.18;;;17.90;99.90;;;18.31;74.76;102564.06;5082334;28;20075;-68
2023/05/31 06:44:50;;;;;;;19.13;13.65;;;18.00;99.90;;;18.11;73.62;102541.91;5083408;28;20094;-67
2023/05/31 06:48:01;;;;;;;19.73;13.80;;;18.00;99.90;;;17.67;74.20;102528.88;5051452;28;20057;-67
2023/05/31 06:50:53;;;;;;;19.52;14.40;;;17.60;99.90;;;17.83;74.06;102563.56;5035420;28;20545;-67
2023/05/31 06:53:47;;;;;;;19.95;13.57;;;17.70;99.90;;;17.89;74.60;102554.59;5081965;28;20071;-67
2023/05/31 06:56:22;;;;;;;24.73;14.63;;;17.50;99.90;;;17.93;74.00;102554.56;5096085;28;20049;-67
2023/05/31 06:58:51;;;;;;;20.08;14.02;;;17.60;99.90;;;18.04;73.66;102557.13;5083021;28;20055;-67
2023/05/31 07:01:20;;;;;;;20.40;14.35;;;17.70;99.90;;;18.08;73.34;102545.50;5083739;28;20063;-67
2023/05/31 07:03:50;;;;;;;19.05;13.65;;;17.80;99.90;;;18.25;73.46;102548.94;5098550;28;20055;-67
2023/05/31 07:06:19;;;;;;;23.05;14.43;;;17.90;99.90;;;18.39;72.59;102560.41;5084777;28;20040;-67
2023/05/31 07:08:51;;;;;;;19.65;13.10;;;18.00;99.90;;;18.47;72.04;102558.56;5080445;28;20045;-67
2023/05/31 07:11:33;;;;;;;18.85;13.15;;;18.20;99.90;;;18.57;71.24;102544.19;5114718;27;20052;-67
2023/05/31 07:14:03;;;;;;;20.70;14.27;;;18.30;99.90;;;18.65;71.58;102550.34;5115277;27;20052;-67
2023/05/31 07:16:32;;;;;;;20.48;13.35;;;18.40;99.90;;;18.80;71.23;102562.69;5100568;28;20056;-67
2023/05/31 07:19:03;;;;;;;23.67;13.43;;;18.50;99.90;;;18.88;70.61;102550.97;5077435;28;20056;-68
2023/05/31 07:21:32;;;;;;;19.88;13.93;;;18.60;99.90;;;19.02;70.36;102558.88;5093740;28;20040;-67
2023/05/31 07:24:00;;;;;;;19.48;13.48;;;18.70;99.90;;;19.09;69.56;102554.28;5084346;28;20044;-67
2023/05/31 07:26:29;;;;;;;19.13;12.65;;;18.80;99.90;;;19.09;69.17;102552.50;5082074;28;20040;-67
2023/05/31 07:28:57;;;;;;;23.88;13.95;;;18.80;99.90;;;19.04;69.04;102545.44;5082267;28;20060;-67
2023/05/31 07:31:26;;;;;;;17.35;12.65;;;18.80;99.90;;;19.16;69.12;102551.53;5083053;28;20040;-68
2023/05/31 07:33:55;;;;;;;17.88;12.57;;;18.80;99.90;;;19.35;68.86;102547.75;5098632;28;20069;-67
2023/05/31 07:36:25;;;;;;;19.08;12.48;;;19.00;99.90;;;19.34;68.27;102545.06;5083903;28;20431;-67
2023/05/31 07:38:54;;;;;;;20.27;12.20;;;19.10;99.90;;;19.45;67.54;102551.19;5081523;28;20397;-67
2023/05/31 07:41:22;;;;;;;18.92;12.13;;;19.20;99.90;;;19.51;67.68;102543.91;5084655;28;20039;-68
2023/05/31 07:43:52;;;;;;;16.55;12.25;;;19.20;99.90;;;19.66;67.32;102550.88;5077318;28;20036;-67
2023/05/31 07:46:20;;;;;;;16.20;12.05;;;19.30;99.90;;;19.79;66.71;102542.59;5084036;28;20048;-67
2023/05/31 07:48:49;;;;;;;17.17;12.52;;;19.50;99.90;;;19.78;66.18;102537.25;5081886;28;20063;-67
2023/05/31 07:51:18;;;;;;;18.00;12.18;;;19.50;99.90;;;19.75;66.00;102537.28;5082846;28;20079;-67
2023/05/31 07:53:48;;;;;;;18.08;11.88;;;19.50;99.90;;;19.97;65.65;102541.41;5081984;28;20102;-67
2023/05/31 07:56:16;;;;;;;17.97;11.40;;;19.70;99.90;;;20.00;64.64;102525.25;5081706;28;20047;-67
2023/05/31 07:58:44;;;;;;;21.40;11.45;;;19.70;99.90;;;20.00;64.19;102530.63;5083628;28;20292;-67
2023/05/31 08:01:13;;;;;;;18.35;11.88;;;19.70;99.90;;;19.66;64.47;102538.34;5081231;28;20048;-67
2023/05/31 08:03:42;;;;;;;18.30;11.32;;;19.50;99.90;;;19.90;64.97;102544.25;5059567;28;20451;-68
2023/05/31 08:06:11;;;;;;;19.92;11.48;;;19.60;99.90;;;20.10;64.81;102532.22;5076825;28;20049;-67
2023/05/31 08:08:41;;;;;;;16.67;11.40;;;19.70;99.90;;;19.91;65.28;102532.56;5082855;28;20137;-67
2023/05/31 08:11:11;;;;;;;17.92;12.05;;;19.70;99.90;;;20.28;65.97;102541.81;5064492;28;20067;-69
2023/05/31 08:13:39;;;;;;;17.55;11.57;;;19.90;99.90;;;20.49;65.93;102531.56;5082976;28;20044;-68
2023/05/31 08:16:08;;;;;;;17.80;11.55;;;20.10;99.90;;;20.58;65.67;102536.75;5082580;28;20055;-68
2023/05/31 08:18:36;;;;;;;20.35;12.18;;;20.30;99.90;;;20.75;65.76;102538.25;5080502;28;20056;-67
2023/05/31 08:21:05;;;;;;;19.10;12.10;;;20.40;99.90;;;20.89;64.83;102534.34;5083445;28;20109;-68
2023/05/31 08:23:33;;;;;;;16.20;11.45;;;20.60;99.90;;;21.07;64.78;102539.41;5081045;28;20044;-68
2023/05/31 08:26:02;;;;;;;17.40;12.13;;;20.80;99.90;;;21.24;64.45;102539.03;5084400;28;20040;-68
2023/05/31 08:28:32;;;;;;;17.98;11.25;;;21.00;99.90;;;21.25;63.59;102540.81;5075367;28;20060;-68
2023/05/31 08:31:00;;;;;;;18.02;11.27;;;21.10;99.90;;;21.43;63.12;102526.91;5082403;28;20492;-67
2023/05/31 08:33:31;;;;;;;17.00;11.18;;;21.20;99.90;;;21.48;62.76;102528.63;5081303;28;20049;-67
2023/05/31 08:35:59;;;;;;;16.35;10.75;;;21.20;99.90;;;21.62;62.08;102528.28;5082837;28;20055;-68
2023/05/31 08:38:28;;;;;;;16.75;11.48;;;21.40;99.90;;;21.20;62.19;102440.41;5082319;28;20489;-68
2023/05/31 08:41:01;;;;;;;18.35;12.38;;;21.40;99.90;;;21.69;61.63;102532.59;5081782;28;20052;-68
2023/05/31 08:43:32;;;;;;;18.20;10.93;;;21.50;99.90;;;21.78;62.13;102534.16;5116426;28;20496;-68
2023/05/31 08:46:01;;;;;;;16.58;11.13;;;21.50;99.90;;;21.19;61.31;102435.97;5076698;28;20127;-67
2023/05/31 08:48:37;;;;;;;16.70;10.05;;;21.50;99.90;;;21.83;61.00;102532.31;5083660;28;20123;-68
2023/05/31 08:51:07;;;;;;;15.25;10.35;;;21.50;99.90;;;21.95;61.58;102532.88;5082478;28;20044;-68
2023/05/31 08:53:36;;;;;;;16.02;10.07;;;21.70;99.90;;;22.01;61.17;102532.72;5081348;28;20044;-68
2023/05/31 08:56:05;;;;;;;15.00;10.60;;;21.70;99.90;;;21.97;60.93;102500.53;5083288;28;20389;-68
2023/05/31 08:58:36;;;;;;;19.33;10.27;;;21.80;99.90;;;22.00;60.65;102517.50;5080348;28;20111;-68
2023/05/31 09:01:05;;;;;;;16.75;10.35;;;21.80;99.90;;;21.58;60.82;102441.25;5076840;28;20485;-68
2023/05/31 09:03:34;;;;;;;15.70;10.20;;;21.80;99.90;;;21.85;59.12;102501.72;5083719;28;20058;-68
2023/05/31 09:06:02;;;;;;;14.65;10.40;;;21.80;99.90;;;22.17;59.67;102528.72;5080053;28;20058;-68
2023/05/31 09:08:33;;;;;;;15.32;9.95;;;21.90;99.90;;;21.86;60.23;102518.75;5083121;28;20044;-69
2023/05/31 09:11:03;;;;;;;15.18;9.13;;;21.70;99.90;;;22.14;60.64;102520.69;5085990;28;20163;-68
2023/05/31 09:13:31;;;;;;;15.82;9.93;;;21.80;99.90;;;22.25;58.75;102521.31;5084784;28;20083;-68
2023/05/31 09:16:02;;;;;;;12.43;8.73;;;22.00;99.90;;;22.38;58.71;102521.88;5087184;28;20468;-69
2023/05/31 09:18:38;;;;;;;13.05;9.02;;;22.10;99.90;;;22.49;58.39;102530.59;5079922;28;20052;-68
2023/05/31 09:21:12;;;;;;;14.52;9.13;;;22.20;99.90;;;22.47;57.86;102523.44;5082645;28;20045;-68
2023/05/31 09:23:53;;;;;;;16.27;9.70;;;22.20;99.90;;;22.69;57.75;102516.53;5083863;28;20056;-69
2023/05/31 09:26:23;;;;;;;16.33;10.55;;;22.40;99.90;;;22.48;59.04;102518.00;5080776;28;20130;-68
2023/05/31 09:28:52;;;;;;;16.63;10.25;;;22.20;99.90;;;20.75;59.45;102172.44;5086382;28;20079;-68
2023/05/31 09:31:22;;;;;;;15.52;10.35;;;22.40;99.90;;;22.82;58.76;102499.09;5067825;28;20148;-69
2023/05/31 09:33:54;;;;;;;17.13;10.52;;;22.60;99.90;;;23.10;58.69;102518.94;5083741;28;20056;-69
2023/05/31 09:36:27;;;;;;;15.52;10.68;;;22.80;99.90;;;23.21;58.58;102520.38;5086803;28;20044;-67
2023/05/31 09:39:03;;;;;;;18.25;10.75;;;23.00;99.90;;;22.78;57.46;102402.97;5079714;28;20048;-67
2023/05/31 09:41:33;;;;;;;16.90;10.60;;;23.10;99.90;;;23.44;56.64;102510.75;5085820;28;20044;-68
2023/05/31 09:44:02;;;;;;;18.52;10.52;;;23.20;99.90;;;23.56;56.86;102513.91;5085326;28;20052;-67
2023/05/31 09:46:32;;;;;;;18.02;10.50;;;23.30;99.90;;;23.60;56.06;102510.19;5084564;28;20040;-67
2023/05/31 09:49:03;;;;;;;15.63;10.10;;;23.30;99.90;;;23.63;56.92;102518.22;5086546;28;20405;-67
2023/05/31 09:51:32;;;;;;;13.95;10.63;;;23.40;99.90;;;23.58;56.01;102517.47;5083229;28;20055;-67
2023/05/31 09:54:06;;;;;;;19.00;10.77;;;23.40;99.90;;;23.70;55.63;102519.78;5079929;28;20041;-67
2023/05/31 09:56:38;;;;;;;18.42;11.75;;;23.40;99.90;;;23.78;55.72;102525.81;5084106;28;20059;-67
2023/05/31 09:59:07;;;;;;;16.10;10.65;;;23.60;99.90;;;23.74;55.83;102494.41;5101245;28;20102;-67
2023/05/31 10:01:38;;;;;;;17.27;10.45;;;23.60;99.90;;;23.83;55.16;102501.31;5084139;28;20040;-67
2023/05/31 10:04:06;;;;;;;14.73;11.07;;;23.60;99.90;;;23.99;54.99;102503.47;5061926;28;20394;-67
2023/05/31 10:06:36;;;;;;;16.40;10.27;;;23.70;99.90;;;24.06;54.55;102507.75;5082901;28;20094;-67
2023/05/31 10:09:05;;;;;;;13.52;9.65;;;23.80;99.90;;;24.03;54.20;102494.34;5086223;28;20481;-67
2023/05/31 10:11:35;;;;;;;13.10;9.48;;;23.90;99.90;;;23.91;53.54;102500.13;5083493;28;20056;-67
2023/05/31 10:14:09;;;;;;;13.63;9.85;;;23.70;99.90;;;24.04;55.13;102501.50;5085123;28;20044;-67
2023/05/31 10:16:47;;;;;;;17.33;10.55;;;23.80;99.90;;;24.25;54.38;102502.63;5085462;28;20047;-67
2023/05/31 10:19:24;;;;;;;15.95;9.90;;;23.90;99.90;;;24.25;54.05;102493.63;5091739;28;20490;-67
2023/05/31 10:21:55;;;;;;;17.50;9.55;;;24.00;99.90;;;24.10;53.04;102500.41;5116462;27;20113;-67